Strona główna
METAR-TAF:

METAR-TAF

Lotnisko :

Port lotniczy Ndżamena

Ndżamena, Czad

Szerokość geograficzna: 12-08N, Długość geograficzna: 015-02E, wysokość: 295 m

Aktualna obserwacja pogody

Raport powstał 22 minut temu, godzina 07:00 UTC
Wiatr 11 kt od południowo-południowy wschód, zmienny między południowo-południowy wschód i południowo-południowy zachód
Temperatura 25°C
Wilgotność 83%
Ciśnienie 1011 hPa
Widzialność 10 km lub więcej
Brak chmur poniżej 1500 m i brak chmur cumulonimbus

METAR: FTTJ 200700Z 15011KT 150V210 CAVOK 25/22 Q1011 NOSIG

czas: 08:22 (07:22 UTC)

Prognoza

Raport powstał 2 godziny i 2 minut temu, godzina 05:20 UTC
Prognoza ważna od 20 godzina 06 UTC do 21 godzina 12 UTC
Wiatr 10 kt od południowo-południowy zachód
Widzialność 10 km lub więcej
Mało chmury na wysokości 4000 ft
Prawdopodobieństwo 30% :
Przejściowo
od 20 godzina 12 UTC do 20 godzina 20 UTC
burza, deszcz

TAF: FTTJ 200520Z 2006/2112 20010KT 9999 FEW040 PROB30 TEMPO 2012/2020 TSRA

Obserwacja i prognoza pogody dla ponad 4000 lotnisk (raport METAR i TAF).

Dostępne stacje oznaczono żółtymi i czerwonymi punktami na mapie.

Najedź kursorem aby zobaczyć nazwę stacji.

Kliknij aby zobaczyć obserwacje i prognozy pogody.

Aby zmienić mapę: kliknij na zielony przycisk z czarnym krzyżykiem, aby powiększyć; na zielony przycisk z myślnikiem, aby pomniejszyć; na zielone strzałki, aby przejść do map sąsiednich.


METAR-TAF: